sensor_id;sensor_type;location;lat;lon;timestamp;P1;durP1;ratioP1;P2;durP2;ratioP2
12155;SDS011;6141;49.092;8.516;2023-05-10T00:00:33;1.87;;;1.33;;
12155;SDS011;6141;49.092;8.516;2023-05-10T00:03:02;1.50;;;1.40;;
12155;SDS011;6141;49.092;8.516;2023-05-10T00:05:31;1.90;;;1.20;;
12155;SDS011;6141;49.092;8.516;2023-05-10T00:08:00;1.67;;;1.13;;
12155;SDS011;6141;49.092;8.516;2023-05-10T00:10:30;1.30;;;1.20;;
12155;SDS011;6141;49.092;8.516;2023-05-10T00:12:58;3.60;;;1.30;;
12155;SDS011;6141;49.092;8.516;2023-05-10T00:15:27;2.80;;;1.17;;
12155;SDS011;6141;49.092;8.516;2023-05-10T00:17:58;2.63;;;1.40;;
12155;SDS011;6141;49.092;8.516;2023-05-10T00:20:26;2.13;;;1.37;;
12155;SDS011;6141;49.092;8.516;2023-05-10T00:22:55;1.37;;;1.27;;
12155;SDS011;6141;49.092;8.516;2023-05-10T00:25:24;1.30;;;1.13;;
12155;SDS011;6141;49.092;8.516;2023-05-10T00:27:52;1.57;;;1.30;;
12155;SDS011;6141;49.092;8.516;2023-05-10T00:30:21;3.93;;;1.23;;
12155;SDS011;6141;49.092;8.516;2023-05-10T00:32:52;1.90;;;1.00;;
12155;SDS011;6141;49.092;8.516;2023-05-10T00:35:22;2.23;;;1.10;;
12155;SDS011;6141;49.092;8.516;2023-05-10T00:37:52;1.20;;;1.00;;
12155;SDS011;6141;49.092;8.516;2023-05-10T00:40:20;1.30;;;1.20;;
12155;SDS011;6141;49.092;8.516;2023-05-10T00:42:53;1.37;;;0.90;;
12155;SDS011;6141;49.092;8.516;2023-05-10T00:45:22;2.20;;;1.00;;
12155;SDS011;6141;49.092;8.516;2023-05-10T00:47:51;1.73;;;1.00;;
12155;SDS011;6141;49.092;8.516;2023-05-10T00:50:23;1.70;;;0.90;;
12155;SDS011;6141;49.092;8.516;2023-05-10T00:52:52;1.57;;;0.87;;
12155;SDS011;6141;49.092;8.516;2023-05-10T00:55:21;1.50;;;1.27;;
12155;SDS011;6141;49.092;8.516;2023-05-10T00:57:50;1.30;;;1.10;;
12155;SDS011;6141;49.092;8.516;2023-05-10T01:00:20;4.90;;;1.40;;
12155;SDS011;6141;49.092;8.516;2023-05-10T01:02:49;2.37;;;1.10;;
12155;SDS011;6141;49.092;8.516;2023-05-10T01:05:17;2.80;;;1.03;;
12155;SDS011;6141;49.092;8.516;2023-05-10T01:07:48;3.47;;;1.23;;
12155;SDS011;6141;49.092;8.516;2023-05-10T01:10:16;1.73;;;1.10;;
12155;SDS011;6141;49.092;8.516;2023-05-10T01:12:45;1.00;;;0.90;;
12155;SDS011;6141;49.092;8.516;2023-05-10T01:15:14;2.07;;;1.10;;
12155;SDS011;6141;49.092;8.516;2023-05-10T01:17:45;2.77;;;1.00;;
12155;SDS011;6141;49.092;8.516;2023-05-10T01:20:15;2.20;;;1.10;;
12155;SDS011;6141;49.092;8.516;2023-05-10T01:22:51;2.67;;;0.97;;
12155;SDS011;6141;49.092;8.516;2023-05-10T01:25:46;1.17;;;1.00;;
12155;SDS011;6141;49.092;8.516;2023-05-10T01:28:44;1.20;;;1.10;;
12155;SDS011;6141;49.092;8.516;2023-05-10T01:31:51;1.67;;;1.10;;
12155;SDS011;6141;49.092;8.516;2023-05-10T01:34:53;0.93;;;0.90;;
12155;SDS011;6141;49.092;8.516;2023-05-10T01:37:29;1.20;;;1.10;;
12155;SDS011;6141;49.092;8.516;2023-05-10T01:40:08;1.10;;;1.00;;
12155;SDS011;6141;49.092;8.516;2023-05-10T01:42:44;0.73;;;0.73;;
12155;SDS011;6141;49.092;8.516;2023-05-10T01:45:20;1.23;;;1.10;;
12155;SDS011;6141;49.092;8.516;2023-05-10T01:48:03;2.00;;;1.03;;
12155;SDS011;6141;49.092;8.516;2023-05-10T01:50:35;1.80;;;1.10;;
12155;SDS011;6141;49.092;8.516;2023-05-10T01:53:06;1.10;;;1.00;;
12155;SDS011;6141;49.092;8.516;2023-05-10T01:55:39;1.87;;;1.37;;
12155;SDS011;6141;49.092;8.516;2023-05-10T01:58:13;1.80;;;1.20;;
12155;SDS011;6141;49.092;8.516;2023-05-10T02:00:43;2.10;;;1.40;;
12155;SDS011;6141;49.092;8.516;2023-05-10T02:03:15;3.10;;;1.27;;
12155;SDS011;6141;49.092;8.516;2023-05-10T02:05:45;1.73;;;1.13;;
12155;SDS011;6141;49.092;8.516;2023-05-10T02:08:15;1.23;;;1.10;;
12155;SDS011;6141;49.092;8.516;2023-05-10T02:10:45;1.67;;;1.17;;
12155;SDS011;6141;49.092;8.516;2023-05-10T02:13:16;1.60;;;1.50;;
12155;SDS011;6141;49.092;8.516;2023-05-10T02:15:46;3.40;;;1.40;;
12155;SDS011;6141;49.092;8.516;2023-05-10T02:18:20;4.03;;;1.30;;
12155;SDS011;6141;49.092;8.516;2023-05-10T02:20:54;4.30;;;1.50;;
12155;SDS011;6141;49.092;8.516;2023-05-10T02:23:27;1.40;;;1.30;;
12155;SDS011;6141;49.092;8.516;2023-05-10T02:25:57;2.37;;;1.80;;
12155;SDS011;6141;49.092;8.516;2023-05-10T02:28:30;2.27;;;1.30;;
12155;SDS011;6141;49.092;8.516;2023-05-10T02:31:00;1.70;;;1.30;;
12155;SDS011;6141;49.092;8.516;2023-05-10T02:33:32;2.00;;;1.80;;
12155;SDS011;6141;49.092;8.516;2023-05-10T02:36:02;2.97;;;2.13;;
12155;SDS011;6141;49.092;8.516;2023-05-10T02:38:31;2.70;;;1.83;;
12155;SDS011;6141;49.092;8.516;2023-05-10T02:41:01;2.90;;;2.00;;
12155;SDS011;6141;49.092;8.516;2023-05-10T02:43:31;2.30;;;2.10;;
12155;SDS011;6141;49.092;8.516;2023-05-10T02:46:01;2.80;;;2.50;;
12155;SDS011;6141;49.092;8.516;2023-05-10T02:48:30;2.40;;;2.20;;
12155;SDS011;6141;49.092;8.516;2023-05-10T02:51:03;3.10;;;2.80;;
12155;SDS011;6141;49.092;8.516;2023-05-10T02:53:36;3.27;;;2.57;;
12155;SDS011;6141;49.092;8.516;2023-05-10T02:56:12;3.00;;;2.80;;
12155;SDS011;6141;49.092;8.516;2023-05-10T02:58:43;4.27;;;2.80;;
12155;SDS011;6141;49.092;8.516;2023-05-10T03:01:12;3.43;;;2.97;;
12155;SDS011;6141;49.092;8.516;2023-05-10T03:03:43;3.20;;;2.90;;
12155;SDS011;6141;49.092;8.516;2023-05-10T03:06:12;3.33;;;2.93;;
12155;SDS011;6141;49.092;8.516;2023-05-10T03:08:41;3.60;;;3.30;;
12155;SDS011;6141;49.092;8.516;2023-05-10T03:11:17;3.47;;;3.17;;
12155;SDS011;6141;49.092;8.516;2023-05-10T03:14:07;3.07;;;2.77;;
12155;SDS011;6141;49.092;8.516;2023-05-10T03:16:41;3.83;;;3.53;;
12155;SDS011;6141;49.092;8.516;2023-05-10T03:19:16;4.87;;;3.60;;
12155;SDS011;6141;49.092;8.516;2023-05-10T03:21:52;3.47;;;3.17;;
12155;SDS011;6141;49.092;8.516;2023-05-10T03:24:23;3.23;;;2.80;;
12155;SDS011;6141;49.092;8.516;2023-05-10T03:26:58;4.20;;;3.90;;
12155;SDS011;6141;49.092;8.516;2023-05-10T03:29:29;4.00;;;3.70;;
12155;SDS011;6141;49.092;8.516;2023-05-10T03:31:59;4.50;;;4.10;;
12155;SDS011;6141;49.092;8.516;2023-05-10T03:34:34;4.70;;;4.30;;
12155;SDS011;6141;49.092;8.516;2023-05-10T03:37:10;4.27;;;3.87;;
12155;SDS011;6141;49.092;8.516;2023-05-10T03:39:39;3.73;;;3.40;;
12155;SDS011;6141;49.092;8.516;2023-05-10T03:42:09;4.27;;;3.87;;
12155;SDS011;6141;49.092;8.516;2023-05-10T03:44:38;3.50;;;3.20;;
12155;SDS011;6141;49.092;8.516;2023-05-10T03:47:08;6.10;;;3.83;;
12155;SDS011;6141;49.092;8.516;2023-05-10T03:49:38;4.80;;;3.87;;
12155;SDS011;6141;49.092;8.516;2023-05-10T03:52:06;4.37;;;3.60;;
12155;SDS011;6141;49.092;8.516;2023-05-10T03:54:35;5.07;;;4.20;;
12155;SDS011;6141;49.092;8.516;2023-05-10T03:57:04;4.17;;;3.37;;
12155;SDS011;6141;49.092;8.516;2023-05-10T03:59:33;4.93;;;4.43;;
12155;SDS011;6141;49.092;8.516;2023-05-10T04:02:02;4.27;;;3.87;;
12155;SDS011;6141;49.092;8.516;2023-05-10T04:04:30;5.23;;;4.00;;
12155;SDS011;6141;49.092;8.516;2023-05-10T04:07:00;4.63;;;3.27;;
12155;SDS011;6141;49.092;8.516;2023-05-10T04:09:29;5.43;;;4.57;;
12155;SDS011;6141;49.092;8.516;2023-05-10T04:11:58;6.17;;;3.60;;
12155;SDS011;6141;49.092;8.516;2023-05-10T04:14:27;4.13;;;3.63;;
12155;SDS011;6141;49.092;8.516;2023-05-10T04:16:55;6.73;;;3.37;;
12155;SDS011;6141;49.092;8.516;2023-05-10T04:19:28;4.27;;;3.83;;
12155;SDS011;6141;49.092;8.516;2023-05-10T04:21:57;3.87;;;3.57;;
12155;SDS011;6141;49.092;8.516;2023-05-10T04:24:31;3.80;;;3.40;;
12155;SDS011;6141;49.092;8.516;2023-05-10T04:26:59;4.00;;;3.60;;
12155;SDS011;6141;49.092;8.516;2023-05-10T04:29:28;4.30;;;3.90;;
12155;SDS011;6141;49.092;8.516;2023-05-10T04:31:57;4.03;;;3.70;;
12155;SDS011;6141;49.092;8.516;2023-05-10T04:34:26;5.13;;;3.90;;
12155;SDS011;6141;49.092;8.516;2023-05-10T04:36:55;3.50;;;3.23;;
12155;SDS011;6141;49.092;8.516;2023-05-10T04:39:25;3.83;;;3.53;;
12155;SDS011;6141;49.092;8.516;2023-05-10T04:41:55;5.00;;;3.90;;
12155;SDS011;6141;49.092;8.516;2023-05-10T04:44:23;4.33;;;3.93;;
12155;SDS011;6141;49.092;8.516;2023-05-10T04:46:51;5.50;;;3.97;;
12155;SDS011;6141;49.092;8.516;2023-05-10T04:49:20;4.07;;;3.77;;
12155;SDS011;6141;49.092;8.516;2023-05-10T04:51:48;3.77;;;3.47;;
12155;SDS011;6141;49.092;8.516;2023-05-10T04:54:17;5.93;;;3.70;;
12155;SDS011;6141;49.092;8.516;2023-05-10T04:56:46;3.50;;;3.20;;
12155;SDS011;6141;49.092;8.516;2023-05-10T04:59:16;7.90;;;3.40;;
12155;SDS011;6141;49.092;8.516;2023-05-10T05:01:45;3.77;;;3.47;;
12155;SDS011;6141;49.092;8.516;2023-05-10T05:04:13;5.37;;;3.70;;
12155;SDS011;6141;49.092;8.516;2023-05-10T05:06:42;3.67;;;3.37;;
12155;SDS011;6141;49.092;8.516;2023-05-10T05:09:13;4.00;;;3.70;;
12155;SDS011;6141;49.092;8.516;2023-05-10T05:11:41;3.87;;;3.47;;
12155;SDS011;6141;49.092;8.516;2023-05-10T05:14:10;3.77;;;3.20;;
12155;SDS011;6141;49.092;8.516;2023-05-10T05:16:39;3.80;;;3.50;;
12155;SDS011;6141;49.092;8.516;2023-05-10T05:19:08;5.87;;;3.70;;
12155;SDS011;6141;49.092;8.516;2023-05-10T05:21:36;4.17;;;3.77;;
12155;SDS011;6141;49.092;8.516;2023-05-10T05:24:05;3.70;;;3.27;;
12155;SDS011;6141;49.092;8.516;2023-05-10T05:26:34;3.70;;;3.40;;
12155;SDS011;6141;49.092;8.516;2023-05-10T05:29:03;4.57;;;3.10;;
12155;SDS011;6141;49.092;8.516;2023-05-10T05:31:32;3.90;;;3.60;;
12155;SDS011;6141;49.092;8.516;2023-05-10T05:34:02;4.63;;;3.53;;
12155;SDS011;6141;49.092;8.516;2023-05-10T05:36:32;3.83;;;3.47;;
12155;SDS011;6141;49.092;8.516;2023-05-10T05:39:04;5.23;;;3.20;;
12155;SDS011;6141;49.092;8.516;2023-05-10T05:41:33;4.50;;;4.10;;
12155;SDS011;6141;49.092;8.516;2023-05-10T05:44:01;4.70;;;4.27;;
12155;SDS011;6141;49.092;8.516;2023-05-10T05:46:29;4.50;;;4.03;;
12155;SDS011;6141;49.092;8.516;2023-05-10T05:48:58;4.67;;;3.97;;
12155;SDS011;6141;49.092;8.516;2023-05-10T05:51:28;4.17;;;3.73;;
12155;SDS011;6141;49.092;8.516;2023-05-10T05:53:57;4.00;;;3.70;;
12155;SDS011;6141;49.092;8.516;2023-05-10T05:56:25;4.80;;;3.60;;
12155;SDS011;6141;49.092;8.516;2023-05-10T05:58:54;3.97;;;2.90;;
12155;SDS011;6141;49.092;8.516;2023-05-10T06:01:23;3.70;;;3.40;;
12155;SDS011;6141;49.092;8.516;2023-05-10T06:03:51;3.17;;;2.83;;
12155;SDS011;6141;49.092;8.516;2023-05-10T06:06:20;3.20;;;2.90;;
12155;SDS011;6141;49.092;8.516;2023-05-10T06:08:49;3.50;;;3.20;;
12155;SDS011;6141;49.092;8.516;2023-05-10T06:11:18;4.03;;;3.37;;
12155;SDS011;6141;49.092;8.516;2023-05-10T06:13:47;3.00;;;2.50;;
12155;SDS011;6141;49.092;8.516;2023-05-10T06:16:17;3.73;;;3.33;;
12155;SDS011;6141;49.092;8.516;2023-05-10T06:18:45;4.60;;;3.00;;
12155;SDS011;6141;49.092;8.516;2023-05-10T06:21:16;3.07;;;2.73;;
12155;SDS011;6141;49.092;8.516;2023-05-10T06:23:45;3.07;;;2.60;;
12155;SDS011;6141;49.092;8.516;2023-05-10T06:26:15;3.37;;;2.73;;
12155;SDS011;6141;49.092;8.516;2023-05-10T06:28:43;2.60;;;2.23;;
12155;SDS011;6141;49.092;8.516;2023-05-10T06:31:12;2.27;;;2.07;;
12155;SDS011;6141;49.092;8.516;2023-05-10T06:33:40;3.60;;;2.17;;
12155;SDS011;6141;49.092;8.516;2023-05-10T06:36:09;3.43;;;2.00;;
12155;SDS011;6141;49.092;8.516;2023-05-10T06:38:38;2.03;;;1.70;;
12155;SDS011;6141;49.092;8.516;2023-05-10T06:41:07;3.27;;;2.40;;
12155;SDS011;6141;49.092;8.516;2023-05-10T06:43:36;1.80;;;1.60;;
12155;SDS011;6141;49.092;8.516;2023-05-10T06:46:07;2.90;;;1.80;;
12155;SDS011;6141;49.092;8.516;2023-05-10T06:48:36;2.00;;;1.80;;
12155;SDS011;6141;49.092;8.516;2023-05-10T06:51:05;2.10;;;1.90;;
12155;SDS011;6141;49.092;8.516;2023-05-10T06:53:34;4.13;;;1.73;;
12155;SDS011;6141;49.092;8.516;2023-05-10T06:56:05;1.93;;;1.40;;
12155;SDS011;6141;49.092;8.516;2023-05-10T06:58:34;1.63;;;1.53;;
12155;SDS011;6141;49.092;8.516;2023-05-10T07:01:06;1.40;;;1.30;;
12155;SDS011;6141;49.092;8.516;2023-05-10T07:03:36;2.10;;;1.80;;
12155;SDS011;6141;49.092;8.516;2023-05-10T07:06:04;2.30;;;1.60;;
12155;SDS011;6141;49.092;8.516;2023-05-10T07:08:44;1.70;;;1.50;;
12155;SDS011;6141;49.092;8.516;2023-05-10T07:11:15;1.33;;;1.23;;
12155;SDS011;6141;49.092;8.516;2023-05-10T07:13:45;2.30;;;1.60;;
12155;SDS011;6141;49.092;8.516;2023-05-10T07:16:16;1.30;;;1.20;;
12155;SDS011;6141;49.092;8.516;2023-05-10T07:18:44;2.00;;;1.60;;
12155;SDS011;6141;49.092;8.516;2023-05-10T07:21:14;6.20;;;1.87;;
12155;SDS011;6141;49.092;8.516;2023-05-10T07:23:43;2.10;;;1.50;;
12155;SDS011;6141;49.092;8.516;2023-05-10T07:26:11;1.80;;;1.70;;
12155;SDS011;6141;49.092;8.516;2023-05-10T07:28:41;2.13;;;1.40;;
12155;SDS011;6141;49.092;8.516;2023-05-10T07:31:10;2.30;;;1.30;;
12155;SDS011;6141;49.092;8.516;2023-05-10T07:33:40;1.67;;;1.50;;
12155;SDS011;6141;49.092;8.516;2023-05-10T07:36:09;1.83;;;1.67;;
12155;SDS011;6141;49.092;8.516;2023-05-10T07:38:37;1.70;;;1.50;;
12155;SDS011;6141;49.092;8.516;2023-05-10T07:41:06;1.70;;;1.60;;
12155;SDS011;6141;49.092;8.516;2023-05-10T07:43:35;4.93;;;1.40;;
12155;SDS011;6141;49.092;8.516;2023-05-10T07:46:06;4.70;;;1.50;;
12155;SDS011;6141;49.092;8.516;2023-05-10T07:48:44;2.03;;;1.47;;
12155;SDS011;6141;49.092;8.516;2023-05-10T07:51:12;1.70;;;1.30;;
12155;SDS011;6141;49.092;8.516;2023-05-10T07:53:41;2.17;;;1.77;;
12155;SDS011;6141;49.092;8.516;2023-05-10T07:56:20;2.87;;;1.60;;
12155;SDS011;6141;49.092;8.516;2023-05-10T07:58:49;1.87;;;1.77;;
12155;SDS011;6141;49.092;8.516;2023-05-10T08:01:20;7.30;;;2.07;;
12155;SDS011;6141;49.092;8.516;2023-05-10T08:03:51;2.63;;;1.50;;
12155;SDS011;6141;49.092;8.516;2023-05-10T08:06:20;2.53;;;1.60;;
12155;SDS011;6141;49.092;8.516;2023-05-10T08:08:48;4.10;;;1.50;;
12155;SDS011;6141;49.092;8.516;2023-05-10T08:11:18;2.93;;;1.53;;
12155;SDS011;6141;49.092;8.516;2023-05-10T08:13:50;2.23;;;1.40;;
12155;SDS011;6141;49.092;8.516;2023-05-10T08:16:20;2.43;;;1.40;;
12155;SDS011;6141;49.092;8.516;2023-05-10T08:18:48;2.80;;;1.33;;
12155;SDS011;6141;49.092;8.516;2023-05-10T08:21:18;2.37;;;1.40;;
12155;SDS011;6141;49.092;8.516;2023-05-10T08:23:47;2.97;;;1.50;;
12155;SDS011;6141;49.092;8.516;2023-05-10T08:26:18;2.00;;;1.40;;
12155;SDS011;6141;49.092;8.516;2023-05-10T08:28:47;2.43;;;1.40;;
12155;SDS011;6141;49.092;8.516;2023-05-10T08:31:16;2.97;;;1.37;;
12155;SDS011;6141;49.092;8.516;2023-05-10T08:33:45;2.43;;;1.37;;
12155;SDS011;6141;49.092;8.516;2023-05-10T08:36:15;4.03;;;1.40;;
12155;SDS011;6141;49.092;8.516;2023-05-10T08:38:49;2.47;;;1.20;;
12155;SDS011;6141;49.092;8.516;2023-05-10T08:41:19;1.33;;;1.10;;
12155;SDS011;6141;49.092;8.516;2023-05-10T08:43:49;2.97;;;1.20;;
12155;SDS011;6141;49.092;8.516;2023-05-10T08:46:18;3.17;;;1.30;;
12155;SDS011;6141;49.092;8.516;2023-05-10T08:48:50;1.77;;;1.13;;
12155;SDS011;6141;49.092;8.516;2023-05-10T08:51:22;1.93;;;1.10;;
12155;SDS011;6141;49.092;8.516;2023-05-10T08:53:53;1.47;;;1.20;;
12155;SDS011;6141;49.092;8.516;2023-05-10T08:56:22;1.17;;;0.97;;
12155;SDS011;6141;49.092;8.516;2023-05-10T08:58:51;2.30;;;0.90;;
12155;SDS011;6141;49.092;8.516;2023-05-10T09:01:20;2.23;;;1.20;;
12155;SDS011;6141;49.092;8.516;2023-05-10T09:03:50;1.53;;;1.00;;
12155;SDS011;6141;49.092;8.516;2023-05-10T09:06:18;1.90;;;1.10;;
12155;SDS011;6141;49.092;8.516;2023-05-10T09:08:48;1.73;;;1.13;;
12155;SDS011;6141;49.092;8.516;2023-05-10T09:11:18;1.37;;;1.00;;
12155;SDS011;6141;49.092;8.516;2023-05-10T09:13:48;1.20;;;0.97;;
12155;SDS011;6141;49.092;8.516;2023-05-10T09:16:19;1.20;;;1.00;;
12155;SDS011;6141;49.092;8.516;2023-05-10T09:18:48;3.13;;;0.80;;
12155;SDS011;6141;49.092;8.516;2023-05-10T09:21:19;1.90;;;1.00;;
12155;SDS011;6141;49.092;8.516;2023-05-10T09:23:49;0.97;;;0.80;;
12155;SDS011;6141;49.092;8.516;2023-05-10T09:26:24;6.37;;;0.97;;
12155;SDS011;6141;49.092;8.516;2023-05-10T09:28:53;1.23;;;0.90;;
12155;SDS011;6141;49.092;8.516;2023-05-10T09:31:23;1.47;;;0.90;;
12155;SDS011;6141;49.092;8.516;2023-05-10T09:33:54;1.03;;;0.90;;
12155;SDS011;6141;49.092;8.516;2023-05-10T09:36:22;0.90;;;0.70;;
12155;SDS011;6141;49.092;8.516;2023-05-10T09:38:52;1.53;;;0.90;;
12155;SDS011;6141;49.092;8.516;2023-05-10T09:41:21;2.23;;;0.90;;
12155;SDS011;6141;49.092;8.516;2023-05-10T09:43:55;1.27;;;0.97;;
12155;SDS011;6141;49.092;8.516;2023-05-10T09:46:24;1.90;;;0.80;;
12155;SDS011;6141;49.092;8.516;2023-05-10T09:48:52;2.30;;;1.00;;
12155;SDS011;6141;49.092;8.516;2023-05-10T09:51:22;3.70;;;0.93;;
12155;SDS011;6141;49.092;8.516;2023-05-10T09:56:47;1.90;;;1.00;;
12155;SDS011;6141;49.092;8.516;2023-05-10T09:59:15;1.73;;;1.10;;
12155;SDS011;6141;49.092;8.516;2023-05-10T10:01:48;1.30;;;1.10;;
12155;SDS011;6141;49.092;8.516;2023-05-10T10:04:18;1.57;;;1.10;;
12155;SDS011;6141;49.092;8.516;2023-05-10T10:06:57;1.17;;;1.00;;
12155;SDS011;6141;49.092;8.516;2023-05-10T10:09:27;1.40;;;1.17;;
12155;SDS011;6141;49.092;8.516;2023-05-10T10:11:58;1.37;;;1.20;;
12155;SDS011;6141;49.092;8.516;2023-05-10T10:14:28;1.87;;;1.20;;
12155;SDS011;6141;49.092;8.516;2023-05-10T10:16:59;1.10;;;1.00;;
12155;SDS011;6141;49.092;8.516;2023-05-10T10:19:32;2.63;;;1.10;;
12155;SDS011;6141;49.092;8.516;2023-05-10T10:22:04;2.70;;;1.20;;
12155;SDS011;6141;49.092;8.516;2023-05-10T10:24:34;3.03;;;1.00;;
12155;SDS011;6141;49.092;8.516;2023-05-10T10:27:07;2.60;;;1.20;;
12155;SDS011;6141;49.092;8.516;2023-05-10T10:29:45;1.10;;;1.00;;
12155;SDS011;6141;49.092;8.516;2023-05-10T10:32:22;1.60;;;1.00;;
12155;SDS011;6141;49.092;8.516;2023-05-10T10:34:57;3.03;;;0.90;;
12155;SDS011;6141;49.092;8.516;2023-05-10T10:37:40;2.33;;;1.13;;
12155;SDS011;6141;49.092;8.516;2023-05-10T10:40:24;2.50;;;1.10;;
12155;SDS011;6141;49.092;8.516;2023-05-10T10:42:56;1.10;;;1.00;;
12155;SDS011;6141;49.092;8.516;2023-05-10T10:45:25;1.37;;;0.93;;
12155;SDS011;6141;49.092;8.516;2023-05-10T10:50:55;3.40;;;1.00;;
12155;SDS011;6141;49.092;8.516;2023-05-10T10:53:26;2.67;;;1.10;;
12155;SDS011;6141;49.092;8.516;2023-05-10T10:56:04;2.73;;;1.30;;
12155;SDS011;6141;49.092;8.516;2023-05-10T10:58:37;2.90;;;1.30;;
12155;SDS011;6141;49.092;8.516;2023-05-10T11:01:13;2.27;;;1.37;;
12155;SDS011;6141;49.092;8.516;2023-05-10T11:06:46;1.83;;;1.30;;
12155;SDS011;6141;49.092;8.516;2023-05-10T11:09:15;4.57;;;1.87;;
12155;SDS011;6141;49.092;8.516;2023-05-10T11:12:07;4.30;;;1.93;;
12155;SDS011;6141;49.092;8.516;2023-05-10T11:14:58;3.70;;;1.83;;
12155;SDS011;6141;49.092;8.516;2023-05-10T11:17:50;3.30;;;1.80;;
12155;SDS011;6141;49.092;8.516;2023-05-10T11:20:42;4.33;;;2.10;;
12155;SDS011;6141;49.092;8.516;2023-05-10T11:23:31;3.67;;;2.10;;
12155;SDS011;6141;49.092;8.516;2023-05-10T11:26:21;2.60;;;1.60;;
12155;SDS011;6141;49.092;8.516;2023-05-10T11:29:12;3.00;;;1.50;;
12155;SDS011;6141;49.092;8.516;2023-05-10T11:32:03;2.97;;;2.03;;
12155;SDS011;6141;49.092;8.516;2023-05-10T11:34:55;3.97;;;1.53;;
12155;SDS011;6141;49.092;8.516;2023-05-10T11:37:43;2.87;;;1.60;;
12155;SDS011;6141;49.092;8.516;2023-05-10T11:40:37;6.27;;;1.60;;
12155;SDS011;6141;49.092;8.516;2023-05-10T11:43:26;2.03;;;1.40;;
12155;SDS011;6141;49.092;8.516;2023-05-10T11:46:18;3.43;;;1.40;;
12155;SDS011;6141;49.092;8.516;2023-05-10T11:49:09;2.70;;;1.17;;
12155;SDS011;6141;49.092;8.516;2023-05-10T11:52:03;2.60;;;1.30;;
12155;SDS011;6141;49.092;8.516;2023-05-10T11:54:35;4.80;;;1.70;;
12155;SDS011;6141;49.092;8.516;2023-05-10T11:57:04;5.03;;;1.70;;
12155;SDS011;6141;49.092;8.516;2023-05-10T11:59:52;2.40;;;1.30;;
12155;SDS011;6141;49.092;8.516;2023-05-10T12:02:40;3.97;;;1.03;;
12155;SDS011;6141;49.092;8.516;2023-05-10T12:05:32;8.13;;;1.00;;
12155;SDS011;6141;49.092;8.516;2023-05-10T12:08:30;0.93;;;0.80;;
12155;SDS011;6141;49.092;8.516;2023-05-10T12:11:19;2.50;;;0.90;;
12155;SDS011;6141;49.092;8.516;2023-05-10T12:14:08;1.53;;;1.00;;
12155;SDS011;6141;49.092;8.516;2023-05-10T12:16:59;1.10;;;0.80;;
12155;SDS011;6141;49.092;8.516;2023-05-10T12:19:48;1.13;;;0.87;;
12155;SDS011;6141;49.092;8.516;2023-05-10T12:22:38;1.73;;;0.80;;
12155;SDS011;6141;49.092;8.516;2023-05-10T12:25:29;2.10;;;1.03;;
12155;SDS011;6141;49.092;8.516;2023-05-10T12:28:20;2.10;;;0.90;;
12155;SDS011;6141;49.092;8.516;2023-05-10T12:31:11;1.53;;;0.77;;
12155;SDS011;6141;49.092;8.516;2023-05-10T12:34:00;2.13;;;1.00;;
12155;SDS011;6141;49.092;8.516;2023-05-10T12:36:49;1.83;;;0.90;;
12155;SDS011;6141;49.092;8.516;2023-05-10T12:39:40;2.03;;;1.27;;
12155;SDS011;6141;49.092;8.516;2023-05-10T12:42:30;1.67;;;1.03;;
12155;SDS011;6141;49.092;8.516;2023-05-10T12:45:19;1.20;;;1.00;;
12155;SDS011;6141;49.092;8.516;2023-05-10T12:48:08;1.80;;;1.10;;
12155;SDS011;6141;49.092;8.516;2023-05-10T12:50:59;1.93;;;1.00;;
12155;SDS011;6141;49.092;8.516;2023-05-10T12:53:48;1.67;;;1.00;;
12155;SDS011;6141;49.092;8.516;2023-05-10T12:56:38;3.30;;;1.30;;
12155;SDS011;6141;49.092;8.516;2023-05-10T12:59:27;1.20;;;0.87;;
12155;SDS011;6141;49.092;8.516;2023-05-10T13:02:16;3.03;;;1.07;;
12155;SDS011;6141;49.092;8.516;2023-05-10T13:05:08;1.00;;;0.90;;
12155;SDS011;6141;49.092;8.516;2023-05-10T13:07:57;2.77;;;1.10;;
12155;SDS011;6141;49.092;8.516;2023-05-10T13:10:45;2.47;;;1.00;;
12155;SDS011;6141;49.092;8.516;2023-05-10T13:13:38;1.87;;;1.23;;
12155;SDS011;6141;49.092;8.516;2023-05-10T13:16:27;1.67;;;1.10;;
12155;SDS011;6141;49.092;8.516;2023-05-10T13:19:17;2.23;;;1.20;;
12155;SDS011;6141;49.092;8.516;2023-05-10T13:22:06;1.70;;;1.20;;
12155;SDS011;6141;49.092;8.516;2023-05-10T13:24:55;4.13;;;1.30;;
12155;SDS011;6141;49.092;8.516;2023-05-10T13:27:44;2.63;;;1.03;;
12155;SDS011;6141;49.092;8.516;2023-05-10T13:30:34;1.90;;;0.83;;
12155;SDS011;6141;49.092;8.516;2023-05-10T13:33:23;2.53;;;0.90;;
12155;SDS011;6141;49.092;8.516;2023-05-10T13:36:12;1.20;;;1.10;;
12155;SDS011;6141;49.092;8.516;2023-05-10T13:39:01;1.70;;;1.00;;
12155;SDS011;6141;49.092;8.516;2023-05-10T13:41:55;1.87;;;0.97;;
12155;SDS011;6141;49.092;8.516;2023-05-10T13:44:44;4.77;;;0.90;;
12155;SDS011;6141;49.092;8.516;2023-05-10T13:47:34;2.40;;;0.90;;
12155;SDS011;6141;49.092;8.516;2023-05-10T13:50:23;1.00;;;0.70;;
12155;SDS011;6141;49.092;8.516;2023-05-10T13:53:12;1.53;;;0.90;;
12155;SDS011;6141;49.092;8.516;2023-05-10T13:56:02;1.73;;;1.00;;
12155;SDS011;6141;49.092;8.516;2023-05-10T13:58:51;2.17;;;0.80;;
12155;SDS011;6141;49.092;8.516;2023-05-10T14:01:39;2.13;;;1.00;;
12155;SDS011;6141;49.092;8.516;2023-05-10T14:04:31;1.80;;;0.77;;
12155;SDS011;6141;49.092;8.516;2023-05-10T14:07:22;2.40;;;0.90;;
12155;SDS011;6141;49.092;8.516;2023-05-10T14:10:11;1.03;;;0.70;;
12155;SDS011;6141;49.092;8.516;2023-05-10T14:13:00;0.87;;;0.70;;
12155;SDS011;6141;49.092;8.516;2023-05-10T14:15:49;1.00;;;0.60;;
12155;SDS011;6141;49.092;8.516;2023-05-10T14:18:38;1.30;;;0.77;;
12155;SDS011;6141;49.092;8.516;2023-05-10T14:21:28;2.03;;;1.00;;
12155;SDS011;6141;49.092;8.516;2023-05-10T14:24:17;1.60;;;0.77;;
12155;SDS011;6141;49.092;8.516;2023-05-10T14:27:06;3.00;;;1.33;;
12155;SDS011;6141;49.092;8.516;2023-05-10T14:29:55;1.93;;;0.90;;
12155;SDS011;6141;49.092;8.516;2023-05-10T14:32:44;0.90;;;0.67;;
12155;SDS011;6141;49.092;8.516;2023-05-10T14:35:33;1.47;;;0.60;;
12155;SDS011;6141;49.092;8.516;2023-05-10T14:38:23;0.83;;;0.50;;
12155;SDS011;6141;49.092;8.516;2023-05-10T14:41:11;1.63;;;0.80;;
12155;SDS011;6141;49.092;8.516;2023-05-10T14:44:02;0.80;;;0.70;;
12155;SDS011;6141;49.092;8.516;2023-05-10T14:46:51;4.33;;;1.03;;
12155;SDS011;6141;49.092;8.516;2023-05-10T14:49:39;0.60;;;0.60;;
12155;SDS011;6141;49.092;8.516;2023-05-10T14:52:28;2.83;;;0.77;;
12155;SDS011;6141;49.092;8.516;2023-05-10T14:55:08;1.27;;;0.83;;
12155;SDS011;6141;49.092;8.516;2023-05-10T14:57:37;1.97;;;0.80;;
12155;SDS011;6141;49.092;8.516;2023-05-10T15:00:06;1.73;;;0.70;;
12155;SDS011;6141;49.092;8.516;2023-05-10T15:02:36;2.30;;;0.93;;
12155;SDS011;6141;49.092;8.516;2023-05-10T15:05:05;3.13;;;0.73;;
12155;SDS011;6141;49.092;8.516;2023-05-10T15:07:34;2.97;;;0.83;;
12155;SDS011;6141;49.092;8.516;2023-05-10T15:10:03;2.33;;;0.87;;
12155;SDS011;6141;49.092;8.516;2023-05-10T15:12:33;2.97;;;0.80;;
12155;SDS011;6141;49.092;8.516;2023-05-10T15:15:02;1.93;;;0.73;;
12155;SDS011;6141;49.092;8.516;2023-05-10T15:17:31;1.87;;;0.97;;
12155;SDS011;6141;49.092;8.516;2023-05-10T15:20:01;2.07;;;0.80;;
12155;SDS011;6141;49.092;8.516;2023-05-10T15:22:30;1.30;;;0.73;;
12155;SDS011;6141;49.092;8.516;2023-05-10T15:25:00;2.40;;;0.73;;
12155;SDS011;6141;49.092;8.516;2023-05-10T15:27:28;1.77;;;0.60;;
12155;SDS011;6141;49.092;8.516;2023-05-10T15:29:58;2.23;;;0.60;;
12155;SDS011;6141;49.092;8.516;2023-05-10T15:32:27;3.10;;;0.90;;
12155;SDS011;6141;49.092;8.516;2023-05-10T15:34:56;2.33;;;0.70;;
12155;SDS011;6141;49.092;8.516;2023-05-10T15:37:24;3.73;;;1.00;;
12155;SDS011;6141;49.092;8.516;2023-05-10T15:39:54;1.53;;;0.83;;
12155;SDS011;6141;49.092;8.516;2023-05-10T15:42:29;2.80;;;0.80;;
12155;SDS011;6141;49.092;8.516;2023-05-10T15:44:59;4.10;;;0.80;;
12155;SDS011;6141;49.092;8.516;2023-05-10T15:47:29;0.70;;;0.60;;
12155;SDS011;6141;49.092;8.516;2023-05-10T15:50:00;1.63;;;0.70;;
12155;SDS011;6141;49.092;8.516;2023-05-10T15:52:29;0.80;;;0.60;;
12155;SDS011;6141;49.092;8.516;2023-05-10T15:54:57;1.17;;;0.80;;